createdAt,value
2023-03-16T00:00:28.728Z,34.20
2023-03-16T00:02:57.163Z,33.00
2023-03-16T00:05:28.782Z,31.90
2023-03-16T00:07:57.157Z,29.40
2023-03-16T00:10:27.751Z,29.20
2023-03-16T00:12:56.831Z,25.60
2023-03-16T00:15:24.904Z,32.20
2023-03-16T00:17:52.785Z,38.40
2023-03-16T00:20:23.175Z,41.70
2023-03-16T00:22:51.451Z,44.90
2023-03-16T00:25:19.741Z,39.00
2023-03-16T00:27:48.498Z,39.70
2023-03-16T00:30:17.394Z,36.70
2023-03-16T00:32:45.372Z,31.20
2023-03-16T00:35:13.513Z,27.50
2023-03-16T00:37:43.753Z,27.10
2023-03-16T00:40:12.879Z,31.40
2023-03-16T00:42:41.484Z,35.10
2023-03-16T00:45:17.933Z,29.00
2023-03-16T00:47:46.655Z,32.00
2023-03-16T00:50:15.795Z,31.20
2023-03-16T00:52:47.143Z,25.50
2023-03-16T00:55:15.119Z,28.10
2023-03-16T00:57:44.953Z,28.10
2023-03-16T01:00:16.866Z,26.70
2023-03-16T01:02:46.048Z,25.40
2023-03-16T01:05:15.143Z,25.80
2023-03-16T01:07:45.105Z,28.70
2023-03-16T01:10:13.239Z,28.20
2023-03-16T01:12:41.506Z,28.00
2023-03-16T01:15:10.269Z,27.80
2023-03-16T01:17:38.272Z,27.10
2023-03-16T01:20:12.113Z,26.00
2023-03-16T01:22:40.244Z,28.00
2023-03-16T01:25:10.919Z,27.00
2023-03-16T01:27:38.880Z,27.90
2023-03-16T01:30:07.632Z,26.60
2023-03-16T01:32:36.676Z,26.50
2023-03-16T01:35:06.140Z,25.80
2023-03-16T01:37:35.240Z,25.90
2023-03-16T01:40:16.178Z,26.90
2023-03-16T01:42:48.493Z,26.80
2023-03-16T01:45:54.752Z,32.80
2023-03-16T01:48:25.008Z,26.00
2023-03-16T01:50:53.770Z,29.40
2023-03-16T01:53:22.550Z,31.20
2023-03-16T01:55:50.571Z,32.50
2023-03-16T01:58:19.640Z,29.00
2023-03-16T02:00:48.258Z,35.10
2023-03-16T02:03:20.627Z,31.50
2023-03-16T02:08:32.911Z,33.30
2023-03-16T02:11:01.559Z,30.70
2023-03-16T02:13:43.634Z,32.30
2023-03-16T02:16:12.145Z,33.10
2023-03-16T02:18:40.419Z,32.90
2023-03-16T02:21:33.254Z,37.20
2023-03-16T02:24:02.480Z,38.40
2023-03-16T02:26:44.942Z,31.70
2023-03-16T02:29:54.238Z,38.00
2023-03-16T02:32:23.010Z,32.50
2023-03-16T02:34:52.050Z,36.10
2023-03-16T02:37:22.500Z,40.00
2023-03-16T02:39:50.477Z,41.10
2023-03-16T02:42:24.209Z,44.00
2023-03-16T02:44:58.544Z,41.90
2023-03-16T02:47:45.871Z,47.50
2023-03-16T02:50:16.033Z,51.80
2023-03-16T02:52:43.992Z,47.30
2023-03-16T02:55:16.313Z,48.60
2023-03-16T02:57:48.163Z,54.60
2023-03-16T03:00:19.215Z,49.50
2023-03-16T03:02:48.819Z,53.70
2023-03-16T03:05:17.339Z,45.90
2023-03-16T03:07:48.498Z,44.00
2023-03-16T03:10:16.567Z,52.40
2023-03-16T03:12:49.271Z,52.30
2023-03-16T03:15:19.970Z,54.80
2023-03-16T03:17:59.995Z,57.70
2023-03-16T03:20:30.884Z,58.60
2023-03-16T03:22:59.148Z,58.40
2023-03-16T03:25:27.927Z,52.60
2023-03-16T03:27:56.585Z,65.90
2023-03-16T03:30:25.712Z,50.90
2023-03-16T03:32:54.194Z,47.80
2023-03-16T03:35:23.039Z,54.60
2023-03-16T03:37:51.220Z,50.80
2023-03-16T03:40:21.472Z,50.10
2023-03-16T03:42:56.728Z,55.90
2023-03-16T03:45:25.257Z,59.90
2023-03-16T03:47:55.381Z,52.30
2023-03-16T03:50:24.001Z,50.90
2023-03-16T03:52:58.404Z,52.40
2023-03-16T03:55:27.336Z,48.80
2023-03-16T03:57:57.361Z,49.20
2023-03-16T04:00:25.721Z,54.20
2023-03-16T04:02:54.588Z,61.50
2023-03-16T04:05:36.066Z,55.90
2023-03-16T04:08:04.842Z,48.60
2023-03-16T04:10:33.155Z,61.40
2023-03-16T04:13:01.336Z,49.20
2023-03-16T04:15:34.343Z,50.10
2023-03-16T04:18:17.496Z,51.30
2023-03-16T04:20:46.693Z,46.30
2023-03-16T04:23:17.587Z,49.80
2023-03-16T04:25:47.009Z,46.00
2023-03-16T04:28:17.911Z,43.60
2023-03-16T04:30:48.433Z,40.00
2023-03-16T04:33:21.694Z,39.10
2023-03-16T04:35:50.442Z,37.20
2023-03-16T04:38:19.390Z,35.60
2023-03-16T04:40:54.626Z,43.10
2023-03-16T04:43:34.564Z,35.40
2023-03-16T04:46:08.177Z,35.60
2023-03-16T04:48:36.670Z,31.00
2023-03-16T04:51:06.035Z,34.10
2023-03-16T04:53:36.392Z,30.40
2023-03-16T04:56:19.338Z,31.50
2023-03-16T04:58:50.658Z,35.80
2023-03-16T05:01:20.830Z,36.30
2023-03-16T05:03:50.146Z,32.20
2023-03-16T05:06:19.034Z,32.00
2023-03-16T05:08:47.835Z,36.10
2023-03-16T05:11:15.860Z,37.00
2023-03-16T05:13:52.339Z,37.70
2023-03-16T05:16:24.050Z,38.30
2023-03-16T05:18:53.263Z,35.30
2023-03-16T05:21:23.780Z,38.40
2023-03-16T05:24:00.223Z,38.70
2023-03-16T05:26:28.370Z,49.90
2023-03-16T05:28:58.439Z,42.60
2023-03-16T05:31:28.947Z,41.50
2023-03-16T05:34:02.638Z,38.90
2023-03-16T05:36:32.063Z,41.20
2023-03-16T05:39:08.525Z,36.10
2023-03-16T05:41:40.262Z,35.90
2023-03-16T05:44:28.057Z,39.00
2023-03-16T05:47:05.621Z,35.80
2023-03-16T05:49:35.383Z,32.40
2023-03-16T05:52:05.728Z,38.70
2023-03-16T05:54:35.007Z,35.20
2023-03-16T05:57:07.111Z,38.70
2023-03-16T05:59:36.955Z,35.20
2023-03-16T06:02:05.565Z,32.40
2023-03-16T06:04:34.359Z,38.50
2023-03-16T06:07:03.053Z,38.20
2023-03-16T06:09:35.170Z,35.30
2023-03-16T06:12:04.847Z,33.90
2023-03-16T06:14:33.568Z,42.60
2023-03-16T06:17:02.185Z,36.10
2023-03-16T06:19:32.613Z,35.70
2023-03-16T06:22:01.806Z,43.80
2023-03-16T06:24:35.836Z,40.00
2023-03-16T06:27:04.550Z,36.70
2023-03-16T06:29:36.433Z,36.70
2023-03-16T06:32:05.304Z,37.60
2023-03-16T06:34:36.293Z,41.90
2023-03-16T06:37:09.806Z,34.90
2023-03-16T06:39:39.268Z,43.90
2023-03-16T06:42:07.458Z,40.30
2023-03-16T06:44:39.526Z,39.50
2023-03-16T06:47:10.514Z,36.50
2023-03-16T06:49:39.258Z,40.40
2023-03-16T06:52:15.048Z,38.30
2023-03-16T06:54:45.390Z,40.50
2023-03-16T06:57:14.166Z,40.90
2023-03-16T06:59:42.242Z,39.10
2023-03-16T07:02:13.947Z,37.80
2023-03-16T07:04:42.407Z,35.50
2023-03-16T07:07:15.619Z,35.80
2023-03-16T07:09:44.027Z,44.80
2023-03-16T07:12:12.208Z,40.40
2023-03-16T07:14:40.642Z,36.90
2023-03-16T07:17:10.746Z,36.10
2023-03-16T07:19:39.075Z,36.80
2023-03-16T07:22:10.299Z,39.30
2023-03-16T07:24:39.874Z,35.50
2023-03-16T07:27:07.859Z,36.50
2023-03-16T07:29:36.734Z,33.50
2023-03-16T07:32:05.309Z,32.20
2023-03-16T07:34:40.096Z,34.80
2023-03-16T07:37:09.313Z,33.10
2023-03-16T07:39:38.546Z,32.30
2023-03-16T07:42:10.816Z,35.40
2023-03-16T07:45:08.892Z,37.60
2023-03-16T07:47:39.661Z,36.70
2023-03-16T07:50:16.208Z,31.20
2023-03-16T07:52:46.247Z,33.20
2023-03-16T07:55:15.252Z,33.60
2023-03-16T07:57:47.853Z,33.00
2023-03-16T08:00:17.290Z,30.80
2023-03-16T08:02:45.946Z,31.90
2023-03-16T08:05:16.329Z,36.30
2023-03-16T08:07:49.159Z,32.20
2023-03-16T08:10:21.225Z,32.00
2023-03-16T08:13:00.880Z,31.60
2023-03-16T08:15:29.847Z,32.40
2023-03-16T08:18:04.529Z,31.20
2023-03-16T08:20:34.273Z,32.80
2023-03-16T08:23:03.034Z,34.30
2023-03-16T08:25:37.675Z,32.80
2023-03-16T08:28:16.125Z,36.10
2023-03-16T08:30:46.013Z,33.00
2023-03-16T08:33:28.025Z,35.40
2023-03-16T08:35:56.997Z,34.10
2023-03-16T08:38:25.311Z,33.10
2023-03-16T08:40:54.371Z,31.70
2023-03-16T08:43:24.088Z,30.70
2023-03-16T08:45:56.005Z,30.20
2023-03-16T08:48:26.648Z,31.30
2023-03-16T08:50:57.140Z,26.60
2023-03-16T08:53:25.486Z,32.40
2023-03-16T08:55:53.553Z,31.90
2023-03-16T08:58:21.613Z,29.60
2023-03-16T09:00:50.650Z,26.00
2023-03-16T09:03:20.181Z,27.60
2023-03-16T09:05:49.532Z,24.70
2023-03-16T09:08:18.389Z,27.80
2023-03-16T09:10:46.971Z,29.20
2023-03-16T09:13:16.345Z,28.10
2023-03-16T09:15:44.513Z,28.10
2023-03-16T09:18:12.599Z,25.20
2023-03-16T09:20:41.010Z,26.20
2023-03-16T09:23:09.532Z,28.00
2023-03-16T09:25:38.054Z,23.90
2023-03-16T09:28:06.498Z,24.60
2023-03-16T09:30:35.680Z,29.70
2023-03-16T09:33:04.372Z,28.50
2023-03-16T09:35:37.079Z,27.20
2023-03-16T09:38:07.407Z,23.80
2023-03-16T09:40:36.280Z,23.20
2023-03-16T09:43:17.002Z,23.10
2023-03-16T09:45:49.426Z,25.00
2023-03-16T09:48:20.966Z,22.30
2023-03-16T09:50:50.015Z,21.90
2023-03-16T09:53:31.938Z,24.80
2023-03-16T09:56:11.369Z,24.00
2023-03-16T09:58:39.758Z,23.10
2023-03-16T10:01:25.348Z,32.40
2023-03-16T10:04:43.847Z,21.60
2023-03-16T10:07:38.778Z,22.40
2023-03-16T10:10:09.749Z,24.00
2023-03-16T10:12:42.018Z,26.20
2023-03-16T10:15:15.280Z,24.50
2023-03-16T10:17:59.407Z,26.30
2023-03-16T10:20:28.490Z,22.40
2023-03-16T10:22:59.440Z,28.50
2023-03-16T10:25:34.546Z,25.80
2023-03-16T10:28:02.683Z,26.90
2023-03-16T10:30:34.880Z,23.30
2023-03-16T10:33:26.642Z,28.20
2023-03-16T10:36:21.684Z,23.40
2023-03-16T10:38:55.256Z,23.40
2023-03-16T10:41:44.016Z,21.50
2023-03-16T10:44:25.606Z,25.30
2023-03-16T10:47:01.770Z,21.30
2023-03-16T10:49:42.053Z,21.80
2023-03-16T10:52:20.037Z,26.60
2023-03-16T10:55:01.280Z,24.20
2023-03-16T10:57:29.746Z,22.20
2023-03-16T11:00:22.222Z,25.70
2023-03-16T11:02:51.946Z,22.90
2023-03-16T11:05:26.629Z,23.40
2023-03-16T11:08:02.260Z,27.70
2023-03-16T11:10:40.505Z,23.40
2023-03-16T11:13:21.043Z,28.70
2023-03-16T11:15:58.853Z,24.30
2023-03-16T11:18:37.386Z,27.80
2023-03-16T11:21:25.821Z,28.80
2023-03-16T11:23:56.111Z,29.50
2023-03-16T11:26:39.530Z,21.90
2023-03-16T11:29:28.885Z,29.80
2023-03-16T11:32:04.140Z,23.50
2023-03-16T11:34:33.131Z,25.70
2023-03-16T11:37:15.764Z,25.70
2023-03-16T11:39:46.945Z,25.80
2023-03-16T11:42:27.458Z,26.40
2023-03-16T11:45:19.837Z,30.60
2023-03-16T11:48:03.882Z,25.10
2023-03-16T11:50:45.197Z,28.70
2023-03-16T11:53:34.236Z,25.60
2023-03-16T11:56:38.305Z,30.60
2023-03-16T11:59:31.919Z,34.00
2023-03-16T12:02:21.811Z,31.60
2023-03-16T12:05:16.843Z,30.50
2023-03-16T12:08:04.380Z,33.10
2023-03-16T12:11:10.230Z,30.50
2023-03-16T12:13:53.474Z,32.20
2023-03-16T12:16:48.317Z,31.80
2023-03-16T12:19:23.163Z,41.60
2023-03-16T12:22:22.757Z,35.20
2023-03-16T12:24:50.928Z,36.00
2023-03-16T12:27:22.614Z,37.80
2023-03-16T12:29:57.003Z,34.90
2023-03-16T12:32:31.199Z,33.00
2023-03-16T12:35:16.926Z,37.60
2023-03-16T12:37:45.660Z,37.60
2023-03-16T12:40:29.900Z,34.40
2023-03-16T12:43:17.452Z,36.60
2023-03-16T12:46:00.482Z,36.80
2023-03-16T12:48:38.804Z,37.80
2023-03-16T12:51:08.160Z,38.90
2023-03-16T12:53:53.344Z,39.30
2023-03-16T12:56:35.898Z,38.20
2023-03-16T12:59:10.552Z,37.30
2023-03-16T13:01:42.530Z,33.70
2023-03-16T13:04:17.065Z,34.70
2023-03-16T13:06:50.477Z,34.40
2023-03-16T13:09:21.972Z,32.30
2023-03-16T13:11:53.394Z,30.60
2023-03-16T13:14:40.390Z,35.00
2023-03-16T13:17:15.808Z,29.30
2023-03-16T13:19:59.032Z,29.70
2023-03-16T13:22:28.862Z,30.30
2023-03-16T13:25:22.222Z,26.20
2023-03-16T13:27:52.970Z,26.30
2023-03-16T13:30:29.958Z,26.50
2023-03-16T13:33:12.307Z,25.70
2023-03-16T13:35:41.160Z,25.50
2023-03-16T13:38:16.553Z,25.30
2023-03-16T13:40:49.147Z,23.60
2023-03-16T13:43:18.651Z,23.30
2023-03-16T13:45:48.463Z,21.80
2023-03-16T13:48:18.160Z,18.40
2023-03-16T13:50:57.983Z,21.00
2023-03-16T13:53:30.460Z,17.90
2023-03-16T13:56:04.404Z,21.60
2023-03-16T13:58:35.615Z,21.20
2023-03-16T14:01:36.278Z,19.00
2023-03-16T14:04:13.659Z,17.60
2023-03-16T14:06:58.378Z,18.40
2023-03-16T14:09:29.018Z,17.80
2023-03-16T14:11:57.832Z,19.20
2023-03-16T14:14:31.135Z,15.20
2023-03-16T14:17:15.089Z,15.70
2023-03-16T14:19:57.583Z,15.80
2023-03-16T14:22:33.983Z,13.90
2023-03-16T14:25:04.756Z,14.50
2023-03-16T14:27:43.661Z,16.80
2023-03-16T14:30:19.531Z,15.90
2023-03-16T14:33:20.797Z,14.50
2023-03-16T14:35:52.063Z,13.70
2023-03-16T14:38:33.144Z,14.90
2023-03-16T14:41:26.380Z,14.50
2023-03-16T14:43:56.411Z,14.90
2023-03-16T14:46:30.924Z,17.20
2023-03-16T14:49:10.798Z,13.10
2023-03-16T14:51:40.191Z,13.90
2023-03-16T14:54:18.273Z,12.90
2023-03-16T14:56:50.849Z,13.00
2023-03-16T14:59:19.106Z,14.30
2023-03-16T15:01:47.796Z,16.30
2023-03-16T15:04:19.475Z,14.50
2023-03-16T15:06:48.441Z,18.70
2023-03-16T15:09:36.248Z,14.80
2023-03-16T15:12:05.195Z,21.00
2023-03-16T15:14:56.708Z,21.60
2023-03-16T15:17:24.730Z,18.80
2023-03-16T15:19:55.869Z,23.90
2023-03-16T15:22:37.593Z,15.30
2023-03-16T15:25:20.313Z,19.10
2023-03-16T15:27:49.121Z,18.00
2023-03-16T15:30:18.953Z,16.50
2023-03-16T15:32:47.666Z,17.90
2023-03-16T15:35:17.038Z,18.90
2023-03-16T15:37:47.395Z,17.40
2023-03-16T15:40:21.509Z,18.40
2023-03-16T15:42:50.540Z,18.90
2023-03-16T15:45:20.894Z,19.00
2023-03-16T15:47:50.070Z,18.50
2023-03-16T15:50:22.033Z,21.10
2023-03-16T15:52:53.925Z,17.30
2023-03-16T15:55:33.912Z,18.00
2023-03-16T15:58:03.041Z,20.30
2023-03-16T16:00:35.854Z,19.40
2023-03-16T16:03:04.709Z,21.50
2023-03-16T16:05:33.105Z,16.00
2023-03-16T16:08:02.249Z,20.30
2023-03-16T16:10:32.268Z,15.70
2023-03-16T16:13:01.508Z,18.50
2023-03-16T16:15:35.605Z,18.40
2023-03-16T16:18:35.114Z,15.10
2023-03-16T16:21:12.127Z,14.80
2023-03-16T16:23:40.201Z,14.50
2023-03-16T16:26:26.287Z,16.10
2023-03-16T16:28:58.617Z,16.80
2023-03-16T16:31:28.438Z,14.60
2023-03-16T16:34:02.993Z,15.50
2023-03-16T16:36:32.513Z,13.10
2023-03-16T16:39:00.655Z,15.90
2023-03-16T16:41:30.492Z,13.70
2023-03-16T16:44:00.153Z,15.90
2023-03-16T16:46:28.852Z,15.00
2023-03-16T16:49:07.791Z,13.10
2023-03-16T16:51:36.058Z,15.20
2023-03-16T16:54:17.648Z,14.80
2023-03-16T16:56:46.505Z,13.70
2023-03-16T16:59:25.125Z,14.50
2023-03-16T17:01:56.699Z,14.50
2023-03-16T17:04:27.273Z,12.70
2023-03-16T17:06:58.841Z,17.40
2023-03-16T17:09:27.750Z,13.40
2023-03-16T17:11:58.920Z,13.60
2023-03-16T17:14:31.601Z,13.80
2023-03-16T17:17:05.007Z,11.60
2023-03-16T17:19:33.400Z,11.30
2023-03-16T17:22:06.542Z,13.40
2023-03-16T17:24:34.543Z,13.60
2023-03-16T17:27:04.498Z,11.60
2023-03-16T17:29:33.581Z,10.90
2023-03-16T17:32:04.732Z,13.20
2023-03-16T17:34:33.404Z,12.20
2023-03-16T17:37:08.407Z,15.20
2023-03-16T17:39:39.571Z,13.00
2023-03-16T17:42:12.247Z,12.30
2023-03-16T17:44:48.750Z,13.50
2023-03-16T17:47:24.698Z,12.30
2023-03-16T17:49:53.692Z,11.90
2023-03-16T17:52:23.802Z,15.60
2023-03-16T17:54:53.563Z,9.80
2023-03-16T17:57:27.908Z,11.60
2023-03-16T17:59:56.136Z,9.60
2023-03-16T18:02:37.388Z,10.80
2023-03-16T18:05:09.550Z,9.40
2023-03-16T18:07:37.783Z,8.10
2023-03-16T18:10:28.444Z,8.90
2023-03-16T18:13:18.185Z,9.20
2023-03-16T18:15:47.613Z,6.90
2023-03-16T18:18:18.137Z,7.70
2023-03-16T18:20:54.831Z,8.40
2023-03-16T18:23:29.170Z,6.60
2023-03-16T18:26:02.239Z,8.70
2023-03-16T18:28:30.968Z,10.40
2023-03-16T18:30:59.383Z,7.90
2023-03-16T18:33:31.073Z,9.00
2023-03-16T18:36:15.651Z,7.30
2023-03-16T18:38:47.460Z,10.80
2023-03-16T18:41:21.021Z,9.80
2023-03-16T18:43:50.080Z,8.30
2023-03-16T18:46:25.659Z,10.30
2023-03-16T18:48:59.406Z,11.30
2023-03-16T18:51:28.283Z,7.80
2023-03-16T18:53:56.561Z,10.60
2023-03-16T18:56:27.422Z,8.10
2023-03-16T18:58:56.413Z,8.00
2023-03-16T19:01:28.843Z,7.30
2023-03-16T19:03:58.589Z,8.40
2023-03-16T19:06:35.886Z,7.90
2023-03-16T19:09:36.284Z,9.60
2023-03-16T19:12:05.410Z,6.10
2023-03-16T19:14:35.152Z,7.50
2023-03-16T19:17:04.834Z,7.00
2023-03-16T19:19:32.775Z,6.70
2023-03-16T19:22:17.434Z,6.60
2023-03-16T19:24:48.173Z,7.80
2023-03-16T19:27:22.198Z,5.60
2023-03-16T19:29:52.305Z,5.60
2023-03-16T19:32:21.577Z,6.00
2023-03-16T19:34:52.321Z,7.50
2023-03-16T19:37:23.682Z,6.60
2023-03-16T19:39:51.643Z,5.10
2023-03-16T19:42:22.670Z,5.80
2023-03-16T19:44:50.942Z,5.60
2023-03-16T19:47:31.085Z,4.80
2023-03-16T19:49:59.211Z,4.90
2023-03-16T19:52:28.324Z,4.60
2023-03-16T19:54:57.536Z,4.70
2023-03-16T19:57:25.466Z,6.60
2023-03-16T19:59:57.594Z,5.20
2023-03-16T20:02:29.892Z,7.80
2023-03-16T20:04:58.235Z,3.50
2023-03-16T20:07:26.488Z,4.40
2023-03-16T20:09:55.484Z,4.00
2023-03-16T20:12:28.994Z,3.20
2023-03-16T20:15:01.668Z,3.10
2023-03-16T20:17:30.636Z,4.70
2023-03-16T20:20:01.334Z,3.40
2023-03-16T20:22:29.725Z,4.30
2023-03-16T20:24:58.257Z,3.80
2023-03-16T20:27:27.708Z,3.80
2023-03-16T20:29:55.856Z,3.60
2023-03-16T20:32:31.521Z,3.60
2023-03-16T20:34:59.590Z,3.00
2023-03-16T20:37:29.119Z,5.40
2023-03-16T20:39:59.048Z,4.60
2023-03-16T20:42:32.027Z,4.60
2023-03-16T20:45:01.346Z,3.90
2023-03-16T20:47:29.725Z,3.30
2023-03-16T20:49:58.358Z,3.50
2023-03-16T20:52:30.715Z,5.30
2023-03-16T20:55:00.025Z,4.30
2023-03-16T20:57:29.900Z,3.20
2023-03-16T20:59:58.042Z,4.10
2023-03-16T21:02:31.982Z,3.60
2023-03-16T21:05:01.740Z,2.90
2023-03-16T21:07:30.708Z,3.40
2023-03-16T21:09:58.603Z,4.40
2023-03-16T21:12:28.040Z,4.10
2023-03-16T21:14:56.347Z,3.80
2023-03-16T21:17:32.399Z,3.20
2023-03-16T21:20:01.719Z,3.20
2023-03-16T21:22:31.878Z,3.40
2023-03-16T21:25:07.324Z,3.90
2023-03-16T21:27:35.401Z,5.40
2023-03-16T21:30:07.393Z,3.90
2023-03-16T21:32:36.060Z,3.60
2023-03-16T21:35:04.466Z,4.70
2023-03-16T21:37:36.129Z,2.80
2023-03-16T21:40:14.680Z,3.80
2023-03-16T21:42:42.678Z,3.20
2023-03-16T21:45:11.568Z,5.90
2023-03-16T21:47:39.802Z,3.90
2023-03-16T21:50:20.136Z,5.70
2023-03-16T21:52:49.685Z,3.10
2023-03-16T21:55:27.660Z,3.70
2023-03-16T21:57:56.564Z,5.20
2023-03-16T22:00:28.965Z,4.50
2023-03-16T22:02:58.434Z,4.30
2023-03-16T22:05:29.536Z,4.50
2023-03-16T22:07:59.177Z,2.70
2023-03-16T22:10:28.520Z,2.90
2023-03-16T22:12:58.059Z,3.90
2023-03-16T22:15:31.603Z,4.50
2023-03-16T22:18:03.080Z,3.40
2023-03-16T22:20:31.115Z,3.90
2023-03-16T22:23:01.452Z,3.80
2023-03-16T22:25:29.852Z,5.10
2023-03-16T22:27:58.251Z,5.20
2023-03-16T22:30:27.535Z,5.60
2023-03-16T22:32:58.424Z,4.60
2023-03-16T22:35:31.831Z,5.20
2023-03-16T22:38:00.998Z,2.80
2023-03-16T22:40:31.204Z,2.50
2023-03-16T22:43:02.335Z,4.90
2023-03-16T22:45:32.174Z,8.60
2023-03-16T22:48:04.874Z,2.90
2023-03-16T22:50:34.360Z,2.80
2023-03-16T22:53:04.803Z,2.10
2023-03-16T22:55:36.239Z,2.80
2023-03-16T22:58:07.766Z,3.00
2023-03-16T23:00:36.148Z,2.70
2023-03-16T23:03:05.067Z,2.00
2023-03-16T23:05:34.888Z,4.50
2023-03-16T23:08:05.758Z,4.10
2023-03-16T23:10:33.625Z,2.20
2023-03-16T23:13:15.353Z,3.00
2023-03-16T23:15:47.701Z,5.40
2023-03-16T23:18:18.344Z,3.90
2023-03-16T23:20:49.837Z,1.90
2023-03-16T23:23:18.523Z,1.70
2023-03-16T23:25:49.573Z,2.30
2023-03-16T23:28:22.901Z,3.00
2023-03-16T23:30:51.251Z,2.10
2023-03-16T23:33:19.495Z,2.60
2023-03-16T23:35:47.551Z,2.30
2023-03-16T23:38:15.463Z,2.00
2023-03-16T23:40:44.543Z,1.70
2023-03-16T23:43:12.472Z,2.50
2023-03-16T23:45:44.350Z,3.70
2023-03-16T23:48:18.069Z,2.80
2023-03-16T23:50:49.323Z,1.70
2023-03-16T23:53:18.739Z,5.10
2023-03-16T23:55:49.914Z,3.20
2023-03-16T23:58:19.731Z,4.00
